Time;durP1;ratioP1;P1;durP2;ratioP2;P2;SDS_P1;SDS_P2;PMS_P1;PMS_P2;Temp;Humidity;BMP_temperature;BMP_pressure;BME280_temperature;BME280_humidity;BME280_pressure;Samples;Min_cycle;Max_cycle;Signal;HPM_P1;HPM_P2
2022/02/08 00:00:19;;;;;;;26.85;8.07;;;8.00;92.30;;;;;;4916011;28;20036;-73
2022/02/08 00:02:49;;;;;;;27.63;9.10;;;8.00;92.40;;;;;;4918473;28;20083;-73
2022/02/08 00:05:17;;;;;;;34.30;7.80;;;8.00;92.40;;;;;;4920853;28;20031;-71
2022/02/08 00:07:50;;;;;;;28.20;7.97;;;8.00;92.50;;;;;;4913399;28;20044;-72
2022/02/08 00:10:16;;;;;;;20.40;7.18;;;8.00;92.60;;;;;;4917935;28;20563;-74
2022/02/08 00:12:42;;;;;;;23.77;7.15;;;8.00;92.70;;;;;;4934899;28;20431;-73
2022/02/08 00:15:08;;;;;;;24.60;7.20;;;8.00;92.70;;;;;;4930608;28;20023;-73
2022/02/08 00:17:35;;;;;;;21.73;5.72;;;8.00;92.60;;;;;;4915819;28;20118;-72
2022/02/08 00:20:03;;;;;;;19.27;6.63;;;8.00;92.70;;;;;;4922464;28;20208;-72
2022/02/08 00:22:30;;;;;;;23.05;6.75;;;8.00;92.80;;;;;;4920228;28;20038;-71
2022/02/08 00:24:56;;;;;;;23.77;5.85;;;8.10;92.70;;;;;;4920579;28;20516;-71
2022/02/08 00:27:22;;;;;;;27.67;6.93;;;8.10;92.80;;;;;;4919682;28;20067;-72
2022/02/08 00:29:49;;;;;;;20.52;6.20;;;8.10;92.70;;;;;;4923742;28;20421;-73
2022/02/08 00:32:14;;;;;;;26.63;6.25;;;8.10;92.60;;;;;;4922550;28;20035;-72
2022/02/08 00:34:40;;;;;;;22.60;6.20;;;8.20;92.60;;;;;;4923076;28;20036;-71
2022/02/08 00:37:06;;;;;;;18.02;6.65;;;8.20;92.50;;;;;;4922094;28;20031;-73
2022/02/08 00:39:33;;;;;;;21.98;6.88;;;8.20;92.50;;;;;;4923297;28;20255;-73
2022/02/08 00:42:04;;;;;;;25.33;6.20;;;8.30;92.40;;;;;;4922410;28;20035;-71
2022/02/08 00:44:38;;;;;;;21.05;6.50;;;8.30;92.30;;;;;;4937413;28;20525;-72
2022/02/08 00:47:25;;;;;;;23.73;7.43;;;8.30;92.30;;;;;;4922668;28;20040;-73
2022/02/08 00:49:51;;;;;;;24.27;7.50;;;8.30;92.30;;;;;;4922305;28;20040;-71
2022/02/08 00:52:17;;;;;;;24.02;7.75;;;8.40;92.30;;;;;;4922100;28;20313;-71
2022/02/08 00:54:45;;;;;;;19.45;7.00;;;8.40;92.20;;;;;;4921615;28;20071;-72
2022/02/08 00:57:11;;;;;;;20.15;7.10;;;8.30;92.20;;;;;;4927416;28;20435;-71
2022/02/08 00:59:37;;;;;;;25.05;7.53;;;8.40;92.20;;;;;;4923018;28;20036;-71
2022/02/08 01:02:05;;;;;;;22.65;6.38;;;8.40;92.00;;;;;;4921879;28;20130;-71
2022/02/08 01:04:31;;;;;;;23.10;6.60;;;8.20;91.50;;;;;;4919329;28;20139;-72
2022/02/08 01:06:59;;;;;;;15.90;5.95;;;8.10;91.30;;;;;;4921962;28;20387;-72
2022/02/08 01:11:59;;;;;;;18.10;6.82;;;8.00;91.20;;;;;;4922143;28;20051;-72
2022/02/08 01:14:25;;;;;;;29.80;8.00;;;8.00;91.10;;;;;;4923696;28;20051;-73
2022/02/08 01:16:52;;;;;;;21.25;7.80;;;8.00;91.00;;;;;;4922074;28;20046;-72
2022/02/08 01:19:20;;;;;;;21.15;6.63;;;7.90;91.10;;;;;;4918748;28;20093;-74
2022/02/08 01:21:46;;;;;;;20.75;6.25;;;7.80;91.30;;;;;;4919131;28;20099;-74
2022/02/08 01:24:12;;;;;;;24.15;7.47;;;7.80;91.60;;;;;;4921885;28;20040;-73
2022/02/08 01:26:47;;;;;;;24.08;7.43;;;7.80;91.60;;;;;;4919141;28;20043;-74
2022/02/08 01:29:23;;;;;;;20.95;7.10;;;7.90;91.60;;;;;;4918938;28;20051;-72
2022/02/08 01:31:51;;;;;;;21.00;6.72;;;8.00;91.60;;;;;;4920998;28;20040;-72
2022/02/08 01:34:42;;;;;;;15.75;6.85;;;8.00;91.60;;;;;;4921952;28;20071;-71
2022/02/08 01:37:26;;;;;;;17.42;6.30;;;8.10;91.60;;;;;;4922180;28;20363;-72
2022/02/08 01:40:15;;;;;;;13.57;6.10;;;8.10;91.90;;;;;;4921296;28;20087;-73
2022/02/08 01:43:10;;;;;;;14.63;5.82;;;8.30;92.50;;;;;;4912410;28;20436;-73
2022/02/08 01:48:17;;;;;;;14.05;5.95;;;8.50;93.20;;;;;;4918447;28;20055;-72
2022/02/08 01:50:43;;;;;;;13.45;5.55;;;8.60;93.20;;;;;;4919340;28;20514;-72
2022/02/08 01:53:09;;;;;;;14.18;6.03;;;8.70;93.10;;;;;;4927959;28;20082;-73
2022/02/08 01:55:35;;;;;;;11.88;6.07;;;8.70;93.10;;;;;;4922287;28;20556;-75
2022/02/08 01:58:02;;;;;;;12.98;5.97;;;8.80;93.10;;;;;;4919732;28;20574;-71
2022/02/08 02:00:29;;;;;;;13.65;5.60;;;8.80;92.90;;;;;;4918805;28;20123;-72
2022/02/08 02:02:55;;;;;;;13.00;6.03;;;8.80;92.90;;;;;;4919967;28;20040;-72
2022/02/08 02:05:22;;;;;;;13.85;5.70;;;8.80;92.90;;;;;;4920337;28;20051;-73
2022/02/08 02:07:49;;;;;;;13.85;5.28;;;8.80;93.00;;;;;;4951445;28;20039;-71
2022/02/08 02:10:16;;;;;;;10.55;4.25;;;8.90;93.00;;;;;;4919974;28;20182;-74
2022/02/08 02:12:57;;;;;;;13.07;5.15;;;8.90;93.00;;;;;;4920726;28;20041;-74
2022/02/08 02:15:23;;;;;;;14.35;5.25;;;8.90;92.90;;;;;;4919454;28;20166;-72
2022/02/08 02:17:49;;;;;;;10.88;5.07;;;9.00;92.90;;;;;;4920142;28;20539;-71
2022/02/08 02:20:16;;;;;;;12.38;5.65;;;9.00;92.90;;;;;;4920211;28;20460;-71
2022/02/08 02:22:42;;;;;;;12.98;5.53;;;9.00;92.90;;;;;;4920124;28;20091;-76
2022/02/08 02:25:18;;;;;;;9.65;5.32;;;9.00;92.90;;;;;;4918060;28;20608;-72
2022/02/08 02:27:44;;;;;;;16.02;6.35;;;9.10;92.70;;;;;;4919945;28;20534;-74
2022/02/08 02:30:10;;;;;;;10.98;6.13;;;9.20;92.60;;;;;;4934022;28;20036;-73
2022/02/08 02:32:39;;;;;;;10.65;5.63;;;9.20;92.40;;;;;;4919867;28;20103;-73
2022/02/08 02:35:05;;;;;;;11.05;5.97;;;9.30;92.40;;;;;;4920844;28;20094;-73
2022/02/08 02:37:31;;;;;;;12.23;5.57;;;9.30;92.40;;;;;;4918640;28;20047;-72
2022/02/08 02:39:56;;;;;;;12.75;6.30;;;9.30;92.20;;;;;;4920151;28;20058;-71
2022/02/08 02:42:22;;;;;;;12.80;6.43;;;9.30;92.30;;;;;;4914545;28;20443;-72
2022/02/08 02:44:47;;;;;;;11.85;6.93;;;9.30;92.30;;;;;;4920614;28;20048;-73
2022/02/08 02:47:13;;;;;;;13.07;7.03;;;9.30;92.40;;;;;;4931137;28;20084;-72
2022/02/08 02:49:39;;;;;;;15.05;7.07;;;9.30;92.30;;;;;;4923826;28;20043;-72
2022/02/08 02:52:06;;;;;;;15.13;7.15;;;9.30;92.30;;;;;;4919974;28;20042;-72
2022/02/08 02:54:32;;;;;;;13.02;7.22;;;9.40;92.40;;;;;;4924340;28;20646;-72
2022/02/08 02:57:00;;;;;;;15.13;7.63;;;9.40;92.50;;;;;;4920849;28;20044;-75
2022/02/08 02:59:26;;;;;;;13.23;7.57;;;9.40;92.50;;;;;;4919157;28;20082;-73
2022/02/08 03:18:33;;;;;;;13.80;6.32;;;9.40;93.10;;;;;;4919201;28;20051;-73
2022/02/08 03:20:56;;;;;;;13.07;6.38;;;9.40;93.10;;;;;;4920995;28;20035;-73
2022/02/08 03:23:21;;;;;;;11.90;7.13;;;9.40;93.20;;;;;;4919824;28;20395;-71
2022/02/08 03:25:47;;;;;;;13.30;6.90;;;9.40;93.30;;;;;;4932199;28;20046;-71
2022/02/08 03:28:13;;;;;;;14.65;7.30;;;9.40;93.40;;;;;;4920452;28;20047;-71
2022/02/08 03:30:39;;;;;;;11.02;6.72;;;9.40;93.40;;;;;;4938779;28;20123;-73
2022/02/08 03:33:07;;;;;;;12.68;7.43;;;9.50;93.40;;;;;;4925410;28;20502;-73
2022/02/08 03:35:33;;;;;;;12.52;7.07;;;9.50;93.40;;;;;;4923046;28;20039;-72
2022/02/08 03:38:02;;;;;;;13.13;7.93;;;9.50;93.40;;;;;;4937401;28;20711;-72
2022/02/08 03:43:39;;;;;;;12.98;7.95;;;9.50;93.40;;;;;;4923157;28;20036;-74
2022/02/08 03:45:58;;;;;;;12.68;8.70;;;9.50;93.40;;;;;;4922567;28;20032;-72
2022/02/08 03:48:27;;;;;;;15.05;7.80;;;9.50;93.40;;;;;;4921375;28;20341;-72
2022/02/08 03:50:55;;;;;;;14.38;7.90;;;9.50;93.40;;;;;;4954553;28;20445;-72
2022/02/08 03:53:23;;;;;;;14.13;7.97;;;9.60;93.20;;;;;;4922019;28;20825;-71
2022/02/08 03:55:49;;;;;;;13.48;7.80;;;9.50;93.20;;;;;;4924438;28;20094;-72
2022/02/08 03:58:15;;;;;;;10.82;6.53;;;9.60;93.10;;;;;;4922964;28;20039;-71
2022/02/08 04:01:02;;;;;;;12.27;6.82;;;9.60;93.20;;;;;;4924476;28;20522;-73
2022/02/08 04:03:30;;;;;;;14.23;6.50;;;9.60;93.00;;;;;;4921524;28;20407;-74
2022/02/08 04:05:58;;;;;;;11.10;6.50;;;9.60;92.90;;;;;;4921708;28;20795;-74
2022/02/08 04:08:23;;;;;;;12.13;6.22;;;9.60;92.90;;;;;;4923078;28;20439;-72
2022/02/08 04:10:50;;;;;;;10.98;5.72;;;9.60;92.90;;;;;;4924549;28;20040;-72
2022/02/08 04:13:26;;;;;;;11.10;5.63;;;9.60;92.80;;;;;;4923782;28;20142;-71
2022/02/08 04:34:45;;;;;;;11.88;5.85;;;9.60;92.40;;;;;;4922596;28;20035;-73
2022/02/08 04:42:30;;;;;;;11.93;5.85;;;9.60;92.20;;;;;;4922756;28;20043;-74
2022/02/08 04:47:40;;;;;;;12.80;5.93;;;9.60;92.20;;;;;;4928789;28;20044;-74
2022/02/08 04:50:06;;;;;;;11.57;6.03;;;9.60;92.20;;;;;;4920569;28;20044;-72
2022/02/08 04:52:33;;;;;;;10.07;5.35;;;9.60;92.20;;;;;;4923686;28;20076;-72
2022/02/08 04:55:27;;;;;;;12.40;5.93;;;9.60;92.20;;;;;;4922443;28;20678;-72
2022/02/08 04:58:11;;;;;;;13.77;6.22;;;9.60;92.10;;;;;;4931396;28;20074;-74
2022/02/08 05:00:47;;;;;;;12.40;5.55;;;9.60;92.10;;;;;;4923291;28;20490;-74
2022/02/08 05:43:40;;;;;;;13.40;5.30;;;9.60;91.60;;;;;;4916438;28;20067;-74
2022/02/08 05:48:45;;;;;;;9.88;4.30;;;9.60;91.50;;;;;;4914806;28;20051;-72
2022/02/08 05:51:23;;;;;;;12.07;5.15;;;9.60;91.50;;;;;;4918338;28;20456;-71
2022/02/08 05:53:48;;;;;;;15.05;5.07;;;9.60;91.20;;;;;;4922078;28;20047;-72
2022/02/08 05:56:16;;;;;;;10.85;4.63;;;9.60;91.20;;;;;;4930763;28;20044;-72
2022/02/08 05:58:45;;;;;;;14.23;4.85;;;9.70;91.00;;;;;;4916349;28;20044;-71
2022/02/08 06:01:12;;;;;;;10.32;4.07;;;9.70;90.80;;;;;;4910735;28;20425;-72
2022/02/08 06:03:38;;;;;;;12.95;3.90;;;9.70;90.60;;;;;;4917679;28;20043;-72
2022/02/08 06:06:04;;;;;;;11.10;4.20;;;9.70;90.40;;;;;;4919204;28;20282;-71
2022/02/08 06:08:30;;;;;;;11.77;4.60;;;9.70;90.20;;;;;;4916953;28;20059;-71
2022/02/08 06:11:02;;;;;;;11.88;3.83;;;9.70;90.20;;;;;;4947454;28;20044;-74
2022/02/08 06:13:27;;;;;;;13.48;4.10;;;9.70;90.10;;;;;;4911501;28;20059;-73
2022/02/08 06:16:01;;;;;;;11.50;4.22;;;9.70;90.00;;;;;;4917431;28;20054;-74
2022/02/08 06:18:31;;;;;;;14.25;4.95;;;9.70;90.00;;;;;;4904971;28;20063;-73
2022/02/08 06:20:57;;;;;;;14.23;4.70;;;9.70;89.70;;;;;;4918614;28;20047;-72
2022/02/08 06:23:23;;;;;;;13.57;4.28;;;9.70;89.60;;;;;;4918243;28;20066;-74
2022/02/08 06:25:49;;;;;;;9.32;3.90;;;9.70;89.60;;;;;;4929274;28;20071;-72
2022/02/08 06:28:16;;;;;;;17.02;5.03;;;9.80;89.50;;;;;;4918375;28;20520;-74
2022/02/08 06:30:42;;;;;;;9.18;3.72;;;9.70;89.40;;;;;;4916902;28;20388;-74
2022/02/08 06:33:12;;;;;;;10.30;3.75;;;9.70;89.50;;;;;;4920879;28;20126;-71
2022/02/08 06:35:37;;;;;;;8.93;3.92;;;9.70;89.50;;;;;;4919371;28;20094;-73
2022/02/08 06:38:03;;;;;;;13.18;4.43;;;9.70;89.30;;;;;;4920323;28;20071;-73
2022/02/08 06:40:31;;;;;;;10.93;4.57;;;9.70;89.20;;;;;;4920058;28;20297;-71
2022/02/08 06:43:02;;;;;;;13.52;4.97;;;9.70;89.20;;;;;;4930405;28;20087;-73
2022/02/08 06:45:28;;;;;;;11.15;4.00;;;9.70;89.10;;;;;;4936348;28;20032;-72
2022/02/08 06:47:54;;;;;;;9.85;3.75;;;9.70;89.10;;;;;;4921808;28;20091;-73
2022/02/08 06:50:19;;;;;;;9.70;3.60;;;9.80;88.90;;;;;;4922676;28;20035;-71
2022/02/08 06:52:45;;;;;;;11.10;3.75;;;9.70;88.60;;;;;;4931637;28;20111;-73
2022/02/08 06:55:12;;;;;;;8.98;3.22;;;9.80;88.60;;;;;;4919385;28;20055;-74
2022/02/08 07:00:23;;;;;;;7.85;3.10;;;9.80;88.40;;;;;;4913865;28;20124;-72
2022/02/08 07:02:49;;;;;;;13.65;3.30;;;9.80;88.20;;;;;;4918825;28;20040;-73
2022/02/08 07:05:15;;;;;;;9.30;3.00;;;9.80;88.20;;;;;;4920002;28;20035;-72
2022/02/08 07:07:41;;;;;;;9.52;3.22;;;9.80;88.00;;;;;;4920261;28;20253;-71
2022/02/08 07:10:07;;;;;;;12.25;3.45;;;9.80;87.80;;;;;;4919966;28;20046;-74
2022/02/08 07:12:33;;;;;;;8.27;2.85;;;9.80;87.70;;;;;;4916156;28;20525;-73
2022/02/08 07:15:06;;;;;;;9.77;2.75;;;9.90;87.20;;;;;;4919222;28;20052;-73
2022/02/08 07:17:32;;;;;;;8.23;2.80;;;9.90;86.90;;;;;;4921336;28;20031;-73
2022/02/08 07:19:57;;;;;;;11.93;3.55;;;9.90;86.60;;;;;;4920521;28;20043;-72
2022/02/08 07:22:23;;;;;;;11.32;3.30;;;9.90;86.40;;;;;;4919485;28;20514;-72
2022/02/08 07:24:49;;;;;;;10.05;2.55;;;9.90;86.10;;;;;;4920498;28;20118;-74
2022/02/08 07:27:15;;;;;;;11.80;3.47;;;9.90;85.70;;;;;;4919366;28;20050;-72
2022/02/08 07:29:48;;;;;;;8.98;2.70;;;9.90;85.60;;;;;;4916321;28;20075;-72
2022/02/08 07:32:14;;;;;;;10.80;3.50;;;9.90;85.30;;;;;;4915218;28;20027;-74
2022/02/08 07:34:45;;;;;;;12.60;3.58;;;9.90;85.10;;;;;;4916055;28;20119;-71
2022/02/08 07:37:33;;;;;;;11.10;3.42;;;10.00;84.70;;;;;;4917239;28;20032;-71
2022/02/08 07:40:03;;;;;;;7.78;3.35;;;10.00;84.60;;;;;;4930050;28;20110;-72
2022/02/08 07:42:29;;;;;;;9.82;2.70;;;10.00;84.00;;;;;;4949681;28;20123;-69
2022/02/08 07:44:54;;;;;;;12.73;3.20;;;10.10;83.70;;;;;;4916417;28;20382;-72
2022/02/08 07:47:20;;;;;;;12.55;3.70;;;10.10;83.60;;;;;;4916558;28;20056;-70
2022/02/08 07:49:46;;;;;;;10.63;3.15;;;10.10;83.20;;;;;;4918513;28;20244;-69
2022/02/08 07:52:11;;;;;;;9.70;3.10;;;10.20;82.80;;;;;;4916541;28;20027;-69
2022/02/08 07:54:39;;;;;;;9.80;3.30;;;10.20;82.80;;;;;;4914950;28;20380;-69
2022/02/08 07:57:05;;;;;;;9.32;3.53;;;10.20;83.10;;;;;;4914893;28;20020;-69
2022/02/08 07:59:31;;;;;;;11.68;3.83;;;10.20;83.30;;;;;;4918538;28;20053;-69
2022/02/08 08:01:56;;;;;;;9.77;3.50;;;10.20;84.10;;;;;;4920592;28;20036;-69
2022/02/08 08:04:22;;;;;;;14.90;4.30;;;10.20;84.50;;;;;;4918522;28;20043;-69
2022/02/08 08:06:48;;;;;;;26.23;6.03;;;10.10;84.90;;;;;;4920703;28;20039;-71
2022/02/08 08:09:14;;;;;;;12.15;3.72;;;10.10;85.30;;;;;;4919591;28;20051;-69
2022/02/08 08:11:43;;;;;;;9.82;3.47;;;10.10;85.50;;;;;;4933813;28;20135;-68
2022/02/08 08:14:10;;;;;;;11.18;2.67;;;10.10;85.60;;;;;;4918940;28;20531;-68
2022/02/08 08:21:39;;;;;;;9.30;2.13;;;10.20;85.60;;;;;;4923969;28;20321;-70
2022/02/08 08:24:08;;;;;;;11.48;2.58;;;10.20;85.50;;;;;;4922599;28;20024;-69
2022/02/08 08:26:34;;;;;;;11.70;2.78;;;10.20;85.50;;;;;;4921330;28;20420;-69
2022/02/08 08:29:00;;;;;;;11.68;3.00;;;10.20;85.40;;;;;;4918962;28;20136;-71
2022/02/08 08:31:25;;;;;;;9.40;2.67;;;10.20;85.30;;;;;;4923331;28;20091;-72
2022/02/08 08:33:51;;;;;;;9.90;2.92;;;10.20;85.20;;;;;;4922793;28;20122;-71
2022/02/08 08:36:19;;;;;;;11.80;2.92;;;10.10;85.10;;;;;;4937823;28;20032;-71
2022/02/08 08:38:50;;;;;;;9.88;3.53;;;10.20;85.00;;;;;;4922948;28;20040;-69
2022/02/08 08:41:28;;;;;;;13.45;3.83;;;10.20;84.90;;;;;;4923515;28;20042;-69
2022/02/08 08:52:08;;;;;;;11.50;3.85;;;10.30;84.80;;;;;;4922004;28;20067;-73
2022/02/08 08:54:33;;;;;;;9.98;3.70;;;10.30;84.70;;;;;;4921525;28;20043;-76
2022/02/08 08:56:59;;;;;;;12.23;4.70;;;10.30;84.70;;;;;;4923487;28;20040;-71
2022/02/08 08:59:24;;;;;;;10.85;4.38;;;10.30;84.80;;;;;;4921878;28;20040;-73
2022/02/08 09:01:50;;;;;;;12.55;3.83;;;10.30;84.90;;;;;;4936625;28;20109;-74
2022/02/08 09:04:18;;;;;;;15.48;4.50;;;10.20;85.30;;;;;;4935489;28;20038;-73
2022/02/08 09:06:47;;;;;;;10.63;3.67;;;10.20;85.50;;;;;;4922537;28;20082;-78
2022/02/08 09:09:15;;;;;;;12.60;4.10;;;10.20;85.40;;;;;;4922736;28;20430;-72
2022/02/08 09:11:52;;;;;;;11.13;4.07;;;10.30;85.30;;;;;;4927687;28;20054;-74
2022/02/08 09:14:21;;;;;;;11.32;3.20;;;10.20;85.40;;;;;;4935847;28;20063;-72
2022/02/08 09:17:14;;;;;;;12.38;3.90;;;10.30;85.30;;;;;;4922121;28;20142;-73
2022/02/08 09:20:13;;;;;;;9.98;3.15;;;10.30;84.70;;;;;;4921833;28;20035;-75
2022/02/08 09:27:51;;;;;;;12.63;3.28;;;10.30;83.70;;;;;;4919680;28;20070;-72
2022/02/08 09:30:19;;;;;;;9.02;2.58;;;10.30;83.30;;;;;;4921679;28;20146;-70
2022/02/08 09:32:52;;;;;;;11.02;2.83;;;10.30;82.50;;;;;;4921645;28;20055;-70
2022/02/08 09:35:19;;;;;;;8.77;3.00;;;10.40;81.50;;;;;;4926190;28;20028;-71
2022/02/08 09:37:46;;;;;;;16.23;3.30;;;10.40;81.20;;;;;;4922175;28;20040;-70
2022/02/08 09:40:15;;;;;;;12.25;3.30;;;10.40;81.50;;;;;;4921650;28;20068;-71
2022/02/08 09:42:42;;;;;;;10.30;2.72;;;10.50;81.90;;;;;;4921668;28;20043;-71
2022/02/08 09:45:14;;;;;;;10.25;2.63;;;10.50;81.90;;;;;;4921362;28;20035;-72
2022/02/08 09:47:46;;;;;;;15.02;3.50;;;10.50;81.70;;;;;;4920121;28;20051;-73
2022/02/08 09:50:20;;;;;;;10.90;3.45;;;10.60;82.10;;;;;;4922876;28;20044;-72
2022/02/08 09:52:50;;;;;;;11.38;3.65;;;10.50;82.30;;;;;;4921867;28;20570;-70
2022/02/08 09:55:17;;;;;;;11.68;3.60;;;10.60;82.60;;;;;;4926774;28;20047;-70
2022/02/08 09:57:43;;;;;;;10.25;3.20;;;10.50;82.80;;;;;;4918607;28;20035;-72
2022/02/08 10:00:10;;;;;;;12.00;2.95;;;10.50;82.80;;;;;;4924534;28;20563;-71
2022/02/08 10:02:36;;;;;;;11.20;2.80;;;10.50;83.00;;;;;;4917463;28;20047;-72
2022/02/08 10:05:05;;;;;;;10.75;3.10;;;10.60;82.90;;;;;;4921452;28;20329;-74
2022/02/08 10:07:35;;;;;;;16.13;3.33;;;10.60;82.60;;;;;;4922386;28;20052;-71
2022/02/08 10:10:03;;;;;;;9.73;2.70;;;10.60;82.30;;;;;;4919816;28;20134;-71
2022/02/08 10:23:36;;;;;;;12.65;2.85;;;10.80;80.10;;;;;;4918501;28;20024;-71
2022/02/08 10:26:09;;;;;;;9.55;2.83;;;10.90;80.30;;;;;;4914671;28;20038;-72
2022/02/08 10:29:06;;;;;;;10.48;3.03;;;11.00;80.30;;;;;;4915894;28;20071;-72
2022/02/08 10:40:11;;;;;;;15.82;3.45;;;11.40;79.30;;;;;;4919423;28;20043;-73
2022/02/08 10:42:39;;;;;;;13.25;3.65;;;11.50;79.20;;;;;;4919074;28;20130;-73
2022/02/08 10:45:18;;;;;;;9.27;2.80;;;11.60;79.40;;;;;;4917155;28;20042;-71
2022/02/08 10:47:48;;;;;;;9.20;2.67;;;11.70;79.70;;;;;;4915670;28;20709;-73
2022/02/08 10:50:14;;;;;;;8.88;3.58;;;11.60;79.90;;;;;;4918712;28;21192;-72
2022/02/08 10:52:43;;;;;;;10.27;3.22;;;11.70;80.10;;;;;;4941429;28;20110;-69
2022/02/08 10:55:19;;;;;;;9.50;2.75;;;11.70;80.20;;;;;;4916539;28;20031;-68
2022/02/08 10:57:52;;;;;;;10.43;3.30;;;11.60;80.80;;;;;;4931793;28;20420;-69
2022/02/08 11:03:03;;;;;;;13.50;3.00;;;11.70;80.80;;;;;;4915712;28;20043;-71
2022/02/08 11:05:54;;;;;;;11.27;3.33;;;11.80;80.90;;;;;;4922446;28;20487;-69
2022/02/08 11:08:46;;;;;;;11.80;3.38;;;11.90;80.80;;;;;;4947092;28;20506;-70
2022/02/08 11:12:24;;;;;;;11.98;3.13;;;12.00;80.90;;;;;;4921703;28;20369;-72
2022/02/08 11:19:29;;;;;;;11.10;3.00;;;12.10;81.10;;;;;;4916971;28;20411;-71
2022/02/08 11:22:05;;;;;;;10.68;4.28;;;12.10;81.30;;;;;;4920915;28;20039;-72
2022/02/08 11:27:12;;;;;;;10.57;3.08;;;12.20;81.50;;;;;;4920664;28;20044;-74
2022/02/08 11:30:06;;;;;;;10.88;3.20;;;12.20;81.20;;;;;;4919492;28;20051;-70
2022/02/08 11:46:40;;;;;;;12.52;3.55;;;12.30;80.00;;;;;;4911048;28;20036;-71
2022/02/08 12:07:29;;;;;;;11.05;2.83;;;12.30;76.00;;;;;;4914449;29;20559;-71
2022/02/08 12:10:12;;;;;;;7.00;2.08;;;12.30;75.40;;;;;;4926806;28;20135;-73
2022/02/08 12:33:03;;;;;;;7.53;2.17;;;12.30;74.20;;;;;;4918900;28;20034;-69
2022/02/08 12:35:39;;;;;;;7.47;1.63;;;12.20;74.20;;;;;;4924081;28;20117;-70
2022/02/08 12:55:29;;;;;;;6.32;1.65;;;12.50;73.90;;;;;;4904497;29;20051;-69
2022/02/08 12:58:12;;;;;;;8.23;2.10;;;12.50;74.10;;;;;;4915622;28;20059;-72
2022/02/08 13:01:00;;;;;;;7.25;2.17;;;12.40;74.70;;;;;;4921181;28;20078;-69
2022/02/08 13:18:36;;;;;;;8.38;1.98;;;11.60;80.30;;;;;;4921252;28;20126;-70
2022/02/08 14:08:41;;;;;;;9.05;2.60;;;11.70;81.10;;;;;;4921927;28;20044;-71
2022/02/08 14:14:05;;;;;;;7.38;3.10;;;11.70;80.60;;;;;;4920709;28;20031;-72
2022/02/08 14:24:13;;;;;;;8.77;2.30;;;11.60;80.00;;;;;;4923606;28;20154;-72
2022/02/08 14:29:40;;;;;;;7.85;2.50;;;11.50;79.30;;;;;;4919930;28;20571;-71
2022/02/08 14:32:28;;;;;;;5.00;2.03;;;11.50;79.10;;;;;;4919799;28;20488;-71
2022/02/08 15:07:56;;;;;;;10.35;3.97;;;10.90;81.30;;;;;;4921188;28;20495;-70
2022/02/08 15:10:18;;;;;;;6.78;3.50;;;11.00;81.60;;;;;;4920984;28;20048;-71
2022/02/08 15:12:51;;;;;;;8.93;2.47;;;11.00;81.50;;;;;;4929683;28;20410;-72
2022/02/08 15:17:51;;;;;;;9.73;2.70;;;11.00;80.90;;;;;;4922134;28;20043;-71
2022/02/08 15:20:17;;;;;;;11.50;2.20;;;11.00;81.00;;;;;;4921060;28;20129;-71
2022/02/08 15:22:43;;;;;;;7.05;2.00;;;11.10;80.40;;;;;;4930815;28;20459;-74
2022/02/08 15:25:13;;;;;;;8.50;2.50;;;11.10;80.30;;;;;;4922661;28;20046;-70
2022/02/08 15:27:40;;;;;;;9.35;2.63;;;11.00;80.60;;;;;;4919002;28;20056;-71
2022/02/08 15:30:08;;;;;;;10.70;2.80;;;11.10;80.50;;;;;;4925768;28;20039;-71
2022/02/08 15:32:35;;;;;;;9.82;3.00;;;11.10;79.60;;;;;;4925380;28;20605;-69
2022/02/08 15:35:05;;;;;;;6.60;1.90;;;11.20;79.50;;;;;;4925443;28;20487;-71
2022/02/08 15:37:31;;;;;;;7.13;2.90;;;11.10;78.70;;;;;;4926061;28;20449;-72
2022/02/08 15:39:58;;;;;;;7.97;3.42;;;11.10;78.40;;;;;;4925762;28;20036;-71
2022/02/08 15:42:31;;;;;;;9.23;3.30;;;11.10;78.30;;;;;;4919548;28;20098;-70
2022/02/08 15:45:07;;;;;;;8.15;4.13;;;11.20;78.50;;;;;;4925603;28;20484;-70
2022/02/08 15:47:33;;;;;;;9.32;3.78;;;11.20;78.90;;;;;;4906990;29;20438;-70
2022/02/08 15:50:06;;;;;;;13.25;4.50;;;11.30;78.90;;;;;;4915765;28;20098;-71
2022/02/08 16:06:48;;;;;;;12.23;3.47;;;11.20;79.70;;;;;;4922138;28;20043;-70
2022/02/08 16:09:34;;;;;;;10.13;3.65;;;11.20;79.60;;;;;;4923637;28;20043;-68
2022/02/08 16:19:21;;;;;;;14.38;6.32;;;11.10;80.30;;;;;;4922844;28;20103;-69
2022/02/08 16:27:18;;;;;;;9.32;4.65;;;11.10;80.70;;;;;;4923947;28;21216;-71
2022/02/08 16:30:48;;;;;;;11.90;4.75;;;11.10;81.20;;;;;;4923191;28;20050;-70
2022/02/08 16:59:36;;;;;;;7.72;3.05;;;10.80;84.40;;;;;;4921547;28;20074;-69
2022/02/08 17:02:05;;;;;;;10.60;8.68;;;10.70;84.30;;;;;;4922485;28;20075;-70
2022/02/08 17:04:31;;;;;;;7.40;3.20;;;10.70;84.30;;;;;;4919978;28;20861;-70
2022/02/08 17:06:56;;;;;;;10.52;5.40;;;10.70;84.20;;;;;;4910419;28;20036;-79
2022/02/08 17:12:26;;;;;;;7.00;3.85;;;10.60;84.50;;;;;;4916840;28;20340;-76
2022/02/08 17:15:14;;;;;;;7.32;3.33;;;10.60;84.40;;;;;;4913528;28;20039;-79
2022/02/08 17:18:19;;;;;;;6.85;3.15;;;10.60;84.10;;;;;;4911308;28;20108;-77
2022/02/08 17:34:37;;;;;;;8.45;4.68;;;10.60;83.40;;;;;;4920153;28;20122;-75
2022/02/08 17:45:17;;;;;;;8.13;4.30;;;10.70;83.30;;;;;;4901727;28;20481;-75
2022/02/08 17:47:43;;;;;;;10.45;4.47;;;10.70;83.20;;;;;;4910898;28;20051;-76
2022/02/08 17:50:13;;;;;;;8.52;4.22;;;10.70;83.20;;;;;;4909615;28;20059;-76
2022/02/08 17:52:40;;;;;;;7.63;3.92;;;10.70;83.10;;;;;;4913893;28;20412;-75
2022/02/08 17:55:08;;;;;;;9.43;4.25;;;10.70;83.10;;;;;;4908316;28;20271;-78
2022/02/08 17:57:34;;;;;;;10.88;4.72;;;10.70;83.20;;;;;;4911766;28;20028;-75
2022/02/08 18:00:00;;;;;;;10.65;4.70;;;10.60;83.20;;;;;;4922492;28;20421;-78
2022/02/08 18:02:26;;;;;;;8.77;5.22;;;10.60;83.30;;;;;;4924140;28;20444;-77
2022/02/08 18:04:57;;;;;;;9.52;5.20;;;10.70;83.20;;;;;;4902081;28;20051;-75
2022/02/08 18:07:24;;;;;;;13.80;6.63;;;10.70;83.40;;;;;;4907680;28;20485;-76
2022/02/08 18:09:52;;;;;;;9.10;4.97;;;10.70;83.40;;;;;;4913113;28;20101;-78
2022/02/08 18:12:19;;;;;;;10.25;5.05;;;10.60;83.80;;;;;;4908683;28;20039;-76
2022/02/08 18:14:51;;;;;;;9.25;4.22;;;10.60;83.80;;;;;;4905758;28;20040;-76
2022/02/08 18:17:23;;;;;;;9.30;4.40;;;10.60;84.00;;;;;;4910921;28;20103;-75
2022/02/08 18:19:57;;;;;;;13.82;4.00;;;10.60;84.10;;;;;;4924374;28;20044;-75
2022/02/08 18:22:33;;;;;;;8.87;3.87;;;10.60;84.20;;;;;;4911417;29;20071;-78
2022/02/08 19:21:33;;;;;;;10.52;6.00;;;10.40;86.90;;;;;;4916245;28;20062;-73
2022/02/08 19:23:55;;;;;;;9.07;5.38;;;10.30;87.00;;;;;;4904338;28;20036;-75
2022/02/08 19:26:21;;;;;;;9.10;6.50;;;10.30;86.90;;;;;;4928149;28;20452;-74
2022/02/08 19:28:50;;;;;;;10.23;5.20;;;10.40;86.90;;;;;;4911709;28;20294;-73
2022/02/08 19:31:19;;;;;;;8.23;5.25;;;10.30;86.70;;;;;;4911900;28;20605;-73
2022/02/08 19:33:49;;;;;;;8.75;4.47;;;10.30;86.80;;;;;;4909174;28;20051;-74
2022/02/08 19:36:15;;;;;;;10.23;5.53;;;10.30;86.70;;;;;;4907081;28;20039;-73
2022/02/08 19:38:43;;;;;;;8.60;4.30;;;10.30;86.80;;;;;;4904820;28;20456;-73
2022/02/08 19:41:09;;;;;;;7.15;4.20;;;10.30;86.70;;;;;;4907718;28;20384;-74
2022/02/08 19:43:34;;;;;;;8.18;4.43;;;10.30;86.70;;;;;;4904686;28;20042;-75
2022/02/08 19:46:00;;;;;;;7.88;4.28;;;10.30;86.90;;;;;;4905097;28;20103;-74
2022/02/08 19:48:26;;;;;;;9.77;5.15;;;10.30;86.80;;;;;;4913100;28;20047;-73
2022/02/08 19:50:52;;;;;;;9.20;4.95;;;10.30;86.70;;;;;;4928381;28;20421;-74
2022/02/08 19:53:18;;;;;;;6.90;4.70;;;10.30;86.70;;;;;;4910406;28;20038;-74
2022/02/08 19:55:56;;;;;;;6.85;4.22;;;10.30;86.60;;;;;;4904052;28;20050;-75
2022/02/08 19:58:26;;;;;;;8.85;4.60;;;10.30;86.40;;;;;;4909458;28;20490;-75
2022/02/08 20:01:00;;;;;;;10.75;4.47;;;10.40;85.80;;;;;;4915990;28;20036;-76
2022/02/08 20:03:32;;;;;;;9.25;4.88;;;10.30;85.70;;;;;;4912909;28;20046;-74
2022/02/08 20:05:58;;;;;;;7.30;3.63;;;10.30;85.60;;;;;;4916652;28;20070;-76
2022/02/08 20:08:26;;;;;;;7.68;4.32;;;10.30;85.70;;;;;;4912026;28;20135;-73
2022/02/08 20:10:54;;;;;;;6.82;3.90;;;10.30;85.80;;;;;;4919039;28;20154;-77
2022/02/08 20:13:25;;;;;;;7.18;3.60;;;10.40;85.70;;;;;;4924466;28;20052;-74
2022/02/08 20:15:53;;;;;;;6.72;3.63;;;10.40;85.60;;;;;;4920012;28;20546;-74
2022/02/08 20:18:19;;;;;;;7.05;3.67;;;10.40;85.60;;;;;;4918877;28;20039;-75
2022/02/08 20:20:46;;;;;;;7.60;3.83;;;10.40;85.80;;;;;;4946073;28;20036;-74
2022/02/08 20:23:13;;;;;;;6.55;3.33;;;10.40;85.80;;;;;;4925812;28;20059;-74
2022/02/08 20:25:46;;;;;;;6.82;3.85;;;10.30;86.10;;;;;;4924210;28;20134;-74
2022/02/08 20:28:18;;;;;;;7.72;4.10;;;10.30;86.20;;;;;;4924389;28;20056;-75
2022/02/08 20:30:43;;;;;;;8.98;3.88;;;10.30;86.20;;;;;;4924431;28;20191;-77
2022/02/08 20:33:09;;;;;;;7.10;3.75;;;10.40;86.30;;;;;;4924199;28;20487;-77
2022/02/08 20:35:35;;;;;;;8.07;4.30;;;10.30;86.30;;;;;;4930008;28;20033;-77
2022/02/08 20:38:03;;;;;;;9.02;4.43;;;10.30;86.20;;;;;;4923882;28;20257;-77
2022/02/08 20:40:29;;;;;;;6.25;3.85;;;10.40;86.20;;;;;;4920834;28;20487;-76